Time;durP1;ratioP1;P1;durP2;ratioP2;P2;SDS_P1;SDS_P2;PMS_P1;PMS_P2;Temp;Humidity;BMP_temperature;BMP_pressure;BME280_temperature;BME280_humidity;BME280_pressure;Samples;Min_cycle;Max_cycle;Signal;HPM_P1;HPM_P2
2023/06/25 00:00:32;;;;;;;6.47;4.45;;;19.20;99.90;;;;;;5011138;28;20193;-81
2023/06/25 00:03:00;;;;;;;5.75;4.20;;;19.20;99.90;;;;;;5031473;28;20192;-79
2023/06/25 00:05:28;;;;;;;6.53;4.22;;;19.20;99.90;;;;;;5025138;28;20663;-83
2023/06/25 00:07:55;;;;;;;6.68;3.80;;;19.30;99.90;;;;;;5011374;28;20684;-81
2023/06/25 00:10:22;;;;;;;6.82;4.22;;;19.30;99.90;;;;;;5030367;28;20192;-77
2023/06/25 00:12:49;;;;;;;6.35;4.68;;;19.30;99.90;;;;;;5042482;28;20318;-79
2023/06/25 00:15:16;;;;;;;6.28;4.32;;;19.30;99.90;;;;;;5029854;28;20192;-79
2023/06/25 00:17:47;;;;;;;5.45;4.13;;;19.40;99.90;;;;;;5028314;28;20743;-80
2023/06/25 00:20:17;;;;;;;6.63;3.97;;;19.40;99.90;;;;;;5007224;28;20605;-80
2023/06/25 00:22:45;;;;;;;6.18;4.13;;;19.50;99.90;;;;;;5029714;28;20196;-82
2023/06/25 00:25:32;;;;;;;6.03;4.05;;;19.50;99.90;;;;;;5017431;28;20262;-80
2023/06/25 00:28:00;;;;;;;6.43;4.05;;;19.50;99.90;;;;;;5028382;28;20606;-78
2023/06/25 00:30:30;;;;;;;6.60;4.43;;;19.50;99.90;;;;;;5026198;28;20201;-77
2023/06/25 00:32:57;;;;;;;8.90;4.35;;;19.40;99.90;;;;;;5007458;28;20216;-79
2023/06/25 00:35:27;;;;;;;6.07;3.97;;;19.30;99.90;;;;;;5029350;28;21223;-83
2023/06/25 00:38:00;;;;;;;5.03;4.22;;;18.90;99.90;;;;;;5026418;28;20198;-82
2023/06/25 00:40:28;;;;;;;5.57;4.40;;;18.70;99.90;;;;;;5004776;28;20211;-82
2023/06/25 00:42:58;;;;;;;5.75;4.22;;;18.60;99.90;;;;;;5005627;28;20776;-80
2023/06/25 00:45:26;;;;;;;7.55;4.43;;;18.50;99.90;;;;;;4996806;28;20196;-82
2023/06/25 00:47:54;;;;;;;8.40;4.38;;;18.00;99.90;;;;;;5034688;28;20227;-81
2023/06/25 00:50:22;;;;;;;8.02;4.45;;;18.10;99.90;;;;;;5026987;28;20215;-81
2023/06/25 00:52:51;;;;;;;6.07;4.60;;;18.10;99.90;;;;;;5018225;28;20646;-81
2023/06/25 00:55:19;;;;;;;5.10;4.38;;;18.20;99.90;;;;;;5031511;28;20199;-82
2023/06/25 00:57:47;;;;;;;8.05;4.32;;;18.40;99.90;;;;;;5015968;28;20184;-82
2023/06/25 01:00:19;;;;;;;7.30;4.30;;;18.50;99.90;;;;;;5015777;28;20649;-90
2023/06/25 01:03:32;;;;;;;5.43;4.15;;;18.40;99.90;;;;;;5046769;22;20275;-60
2023/06/25 01:06:29;;;;;;;8.88;4.13;;;18.70;99.90;;;;;;5038748;28;20618;-61
2023/06/25 01:08:59;;;;;;;5.60;4.28;;;19.00;99.90;;;;;;5020662;28;20573;-60
2023/06/25 01:11:28;;;;;;;5.90;4.30;;;19.10;99.90;;;;;;5020180;28;20217;-63
2023/06/25 01:13:56;;;;;;;5.47;4.25;;;19.30;99.90;;;;;;5022410;28;20267;-62
2023/06/25 01:16:23;;;;;;;5.03;4.00;;;19.40;99.90;;;;;;5018718;28;20266;-61
2023/06/25 01:18:50;;;;;;;6.00;3.97;;;19.30;99.90;;;;;;5024209;28;20224;-62
2023/06/25 01:21:31;;;;;;;5.85;4.10;;;19.20;99.90;;;;;;5024779;28;20794;-61
2023/06/25 01:23:59;;;;;;;8.95;4.45;;;19.20;99.90;;;;;;5036782;28;20218;-60
2023/06/25 01:26:26;;;;;;;7.43;4.70;;;19.30;99.90;;;;;;5002798;28;20204;-61
2023/06/25 01:28:55;;;;;;;5.22;3.60;;;19.20;99.90;;;;;;5020066;28;20659;-62
2023/06/25 01:31:30;;;;;;;5.13;3.63;;;19.30;99.90;;;;;;5018434;28;20224;-60
2023/06/25 01:33:58;;;;;;;6.47;4.53;;;19.20;99.90;;;;;;5026854;28;20281;-60
2023/06/25 01:36:25;;;;;;;5.22;3.67;;;19.30;99.90;;;;;;5027584;28;20188;-61
2023/06/25 01:38:52;;;;;;;8.23;4.82;;;19.00;99.90;;;;;;5036979;28;20204;-62
2023/06/25 01:41:19;;;;;;;7.68;4.20;;;18.50;99.90;;;;;;5025312;28;20196;-63
2023/06/25 01:43:46;;;;;;;6.57;4.38;;;18.20;99.90;;;;;;5039810;28;20215;-61
2023/06/25 01:46:13;;;;;;;7.70;4.57;;;18.10;99.90;;;;;;5022611;28;20611;-60
2023/06/25 01:48:40;;;;;;;5.38;4.30;;;18.40;99.90;;;;;;5022724;28;20238;-61
2023/06/25 01:51:08;;;;;;;5.43;3.85;;;18.50;99.90;;;;;;5013633;28;20200;-61
2023/06/25 01:53:35;;;;;;;6.28;4.45;;;18.40;99.90;;;;;;5032149;28;20197;-61
2023/06/25 01:56:02;;;;;;;8.20;4.57;;;18.50;99.90;;;;;;5024678;28;20258;-62
2023/06/25 01:58:29;;;;;;;5.47;4.28;;;18.50;99.90;;;;;;5023284;28;20193;-60
2023/06/25 02:00:56;;;;;;;7.20;4.43;;;18.50;99.90;;;;;;5018778;28;20200;-62
2023/06/25 02:03:23;;;;;;;7.47;4.45;;;18.60;99.90;;;;;;5016344;28;20243;-61
2023/06/25 02:05:50;;;;;;;5.65;3.97;;;18.70;99.90;;;;;;5018220;28;20251;-62
2023/06/25 02:08:18;;;;;;;8.50;4.25;;;18.60;99.90;;;;;;5020894;28;20633;-61
2023/06/25 02:10:45;;;;;;;5.53;4.45;;;18.60;99.90;;;;;;5010045;28;20738;-61
2023/06/25 02:13:14;;;;;;;7.35;3.70;;;18.50;99.90;;;;;;5019744;28;20228;-61
2023/06/25 02:15:42;;;;;;;8.52;4.50;;;18.70;99.90;;;;;;5020020;28;20188;-60
2023/06/25 02:18:14;;;;;;;7.63;4.30;;;18.70;99.90;;;;;;5019638;28;20185;-60
2023/06/25 02:20:41;;;;;;;8.35;4.50;;;18.70;99.90;;;;;;5039317;28;20199;-60
2023/06/25 02:23:08;;;;;;;6.00;4.22;;;18.60;99.90;;;;;;5020460;28;20263;-60
2023/06/25 02:25:35;;;;;;;5.80;3.88;;;18.60;99.90;;;;;;5027256;28;20238;-60
2023/06/25 02:28:02;;;;;;;6.07;4.63;;;18.60;99.90;;;;;;5018576;28;20564;-61
2023/06/25 02:30:30;;;;;;;6.32;4.43;;;18.50;99.90;;;;;;5022734;28;20220;-61
2023/06/25 02:32:57;;;;;;;5.18;4.30;;;18.30;99.90;;;;;;5019817;28;20638;-61
2023/06/25 02:35:25;;;;;;;6.50;4.65;;;18.10;99.90;;;;;;5020230;28;20710;-60
2023/06/25 02:37:51;;;;;;;7.53;5.05;;;18.00;99.90;;;;;;5020214;28;20207;-63
2023/06/25 02:40:19;;;;;;;5.63;4.93;;;17.90;99.90;;;;;;5039361;28;20277;-64
2023/06/25 02:42:47;;;;;;;9.75;5.10;;;17.80;99.90;;;;;;5025016;28;20231;-63
2023/06/25 02:45:14;;;;;;;7.63;4.40;;;17.70;99.90;;;;;;5025138;28;20192;-63
2023/06/25 02:47:41;;;;;;;8.40;5.25;;;17.70;99.90;;;;;;5024879;28;20192;-65
2023/06/25 02:50:10;;;;;;;6.50;4.55;;;17.80;99.90;;;;;;5023896;28;20211;-64
2023/06/25 02:52:37;;;;;;;7.85;5.20;;;17.70;99.90;;;;;;5020804;28;20645;-63
2023/06/25 02:55:04;;;;;;;7.07;5.07;;;17.60;99.90;;;;;;5023607;28;20192;-64
2023/06/25 02:57:32;;;;;;;7.72;5.10;;;17.60;99.90;;;;;;5017698;28;20208;-64
2023/06/25 02:59:59;;;;;;;7.93;4.63;;;17.70;99.90;;;;;;5025270;28;20211;-64
2023/06/25 03:02:26;;;;;;;9.15;5.13;;;17.70;99.90;;;;;;5024322;28;20205;-62
2023/06/25 03:04:54;;;;;;;7.95;5.97;;;17.70;99.90;;;;;;5020523;28;20277;-66
2023/06/25 03:07:22;;;;;;;8.05;5.47;;;17.80;99.90;;;;;;5021365;28;20597;-63
2023/06/25 03:09:52;;;;;;;9.35;6.05;;;17.80;99.90;;;;;;5005786;28;20200;-60
2023/06/25 03:12:20;;;;;;;7.53;5.93;;;17.90;99.90;;;;;;5007207;28;20694;-61
2023/06/25 03:14:48;;;;;;;9.38;6.60;;;17.90;99.90;;;;;;5023482;28;20200;-62
2023/06/25 03:17:15;;;;;;;8.75;6.28;;;17.80;99.90;;;;;;5004370;28;20200;-62
2023/06/25 03:19:42;;;;;;;7.13;5.85;;;17.70;99.90;;;;;;5023992;28;20203;-62
2023/06/25 03:22:09;;;;;;;8.93;6.53;;;17.60;99.90;;;;;;5018753;28;20199;-61
2023/06/25 03:24:40;;;;;;;8.80;5.95;;;17.60;99.90;;;;;;5042202;28;20196;-61
2023/06/25 03:27:07;;;;;;;9.52;7.13;;;17.60;99.90;;;;;;5026710;28;20227;-60
2023/06/25 03:29:34;;;;;;;9.25;6.55;;;17.60;99.90;;;;;;5012430;28;20334;-61
2023/06/25 03:32:02;;;;;;;8.60;5.90;;;17.60;99.90;;;;;;5028558;28;20208;-61
2023/06/25 03:34:30;;;;;;;9.40;7.00;;;17.60;99.90;;;;;;5026164;28;20220;-61
2023/06/25 03:36:56;;;;;;;10.93;6.43;;;17.60;99.90;;;;;;5023945;28;20273;-60
2023/06/25 03:39:24;;;;;;;12.45;5.80;;;17.70;99.90;;;;;;5023660;28;20192;-63
2023/06/25 03:41:50;;;;;;;10.15;6.43;;;17.70;99.90;;;;;;5020080;28;20583;-61
2023/06/25 03:44:18;;;;;;;9.73;6.57;;;17.70;99.90;;;;;;5021658;28;20215;-59
2023/06/25 03:46:45;;;;;;;9.02;6.07;;;17.70;99.90;;;;;;5022433;28;20200;-61
2023/06/25 03:49:12;;;;;;;7.88;6.05;;;17.80;99.90;;;;;;5024944;28;20286;-61
2023/06/25 03:51:38;;;;;;;9.13;6.32;;;17.80;99.90;;;;;;5019814;28;20751;-60
2023/06/25 03:54:07;;;;;;;12.45;7.18;;;18.00;99.90;;;;;;5026199;28;20727;-61
2023/06/25 03:56:35;;;;;;;8.65;5.95;;;18.30;99.90;;;;;;5007633;28;20186;-60
2023/06/25 03:59:02;;;;;;;9.85;6.05;;;18.80;99.90;;;;;;5024447;28;20193;-62
2023/06/25 04:01:29;;;;;;;6.78;5.43;;;19.00;99.90;;;;;;5015043;28;20193;-61
2023/06/25 04:03:57;;;;;;;12.25;7.07;;;19.30;99.90;;;;;;5034574;28;20422;-62
2023/06/25 04:06:24;;;;;;;9.27;5.78;;;19.80;99.90;;;;;;5026840;28;20196;-62
2023/06/25 04:08:51;;;;;;;9.40;6.00;;;20.40;99.90;;;;;;5025456;28;20258;-61
2023/06/25 04:11:19;;;;;;;12.15;8.95;;;20.30;99.90;;;;;;5023578;28;20714;-62
2023/06/25 04:13:46;;;;;;;8.65;5.72;;;20.90;99.90;;;;;;5024003;28;20579;-60
2023/06/25 04:16:13;;;;;;;9.13;5.50;;;21.50;99.90;;;;;;5022809;28;20200;-59
2023/06/25 04:18:43;;;;;;;10.68;4.78;;;21.90;99.90;;;;;;5026937;28;20223;-59
2023/06/25 04:21:10;;;;;;;7.22;4.78;;;22.00;99.90;;;;;;5024290;28;20185;-59
2023/06/25 04:23:37;;;;;;;6.63;5.03;;;22.00;99.90;;;;;;5024167;28;20283;-61
2023/06/25 04:26:05;;;;;;;8.55;5.07;;;21.90;99.90;;;;;;5020285;28;20200;-61
2023/06/25 04:28:32;;;;;;;11.13;5.72;;;22.10;99.90;;;;;;5026376;28;20206;-61
2023/06/25 04:31:00;;;;;;;8.93;5.45;;;22.30;99.90;;;;;;5022825;28;20201;-61
2023/06/25 04:33:27;;;;;;;5.95;4.55;;;22.60;99.90;;;;;;5027438;28;20212;-61
2023/06/25 04:35:55;;;;;;;8.23;5.55;;;22.60;99.90;;;;;;5025215;28;20223;-61
2023/06/25 04:38:22;;;;;;;8.02;5.78;;;23.30;99.90;;;;;;5002574;28;20723;-59
2023/06/25 04:40:49;;;;;;;9.18;5.82;;;23.70;99.90;;;;;;5018520;28;20189;-59
2023/06/25 04:43:16;;;;;;;6.82;4.72;;;24.10;99.90;;;;;;5033278;28;20661;-60
2023/06/25 04:45:44;;;;;;;10.82;5.78;;;24.30;99.90;;;;;;5023636;28;20200;-60
2023/06/25 04:48:11;;;;;;;6.20;4.95;;;24.30;99.90;;;;;;5026854;28;20200;-60
2023/06/25 04:50:38;;;;;;;5.65;4.97;;;24.80;99.90;;;;;;5023670;28;20208;-60
2023/06/25 04:53:05;;;;;;;8.65;5.47;;;25.00;99.90;;;;;;5021744;28;20748;-60
2023/06/25 04:55:32;;;;;;;7.35;5.78;;;25.20;99.90;;;;;;5019249;28;20576;-60
2023/06/25 04:57:59;;;;;;;10.82;5.88;;;25.30;99.90;;;;;;5024335;28;20204;-60
2023/06/25 05:00:26;;;;;;;6.60;5.65;;;25.30;99.90;;;;;;5025893;28;20216;-61
2023/06/25 05:02:53;;;;;;;6.13;5.25;;;25.70;99.90;;;;;;5018638;28;20238;-61
2023/06/25 05:05:20;;;;;;;6.95;5.07;;;25.70;99.90;;;;;;5030132;28;20780;-61
2023/06/25 05:07:47;;;;;;;6.35;5.57;;;26.00;99.90;;;;;;5043862;28;20196;-61
2023/06/25 05:10:16;;;;;;;6.13;5.00;;;26.30;99.90;;;;;;5024649;28;20208;-61
2023/06/25 05:12:43;;;;;;;7.93;5.20;;;26.70;99.90;;;;;;5020270;28;20212;-59
2023/06/25 05:15:10;;;;;;;8.13;5.70;;;26.50;99.90;;;;;;5019811;28;20279;-59
2023/06/25 05:17:37;;;;;;;6.43;5.20;;;26.50;99.90;;;;;;5023551;28;20184;-59
2023/06/25 05:20:05;;;;;;;6.57;5.32;;;26.50;99.90;;;;;;5025559;28;20196;-59
2023/06/25 05:22:32;;;;;;;7.85;5.70;;;26.60;99.90;;;;;;5024691;28;20197;-59
2023/06/25 05:24:59;;;;;;;5.78;5.13;;;26.70;99.90;;;;;;5022115;28;20942;-58
2023/06/25 05:27:26;;;;;;;8.70;5.30;;;26.90;99.90;;;;;;5026102;28;20663;-59
2023/06/25 05:29:53;;;;;;;5.55;4.88;;;27.50;99.90;;;;;;5024992;28;20701;-59
2023/06/25 05:32:20;;;;;;;8.48;5.22;;;28.30;99.90;;;;;;5017611;28;20630;-59
2023/06/25 05:34:47;;;;;;;6.30;5.05;;;28.20;99.90;;;;;;5014897;28;20894;-59
2023/06/25 05:37:14;;;;;;;10.02;5.35;;;28.60;99.90;;;;;;5020697;28;20661;-59
2023/06/25 05:39:40;;;;;;;7.30;4.90;;;28.80;99.90;;;;;;5017417;28;20212;-60
2023/06/25 05:42:08;;;;;;;7.20;4.78;;;29.60;98.40;;;;;;5035061;28;20197;-61
2023/06/25 05:44:35;;;;;;;5.60;4.50;;;29.80;97.30;;;;;;5021883;28;20271;-61
2023/06/25 05:47:02;;;;;;;6.82;4.40;;;29.20;97.30;;;;;;5021482;28;20204;-61
2023/06/25 05:49:29;;;;;;;7.20;4.32;;;29.60;97.90;;;;;;5018319;28;20672;-59
2023/06/25 05:51:56;;;;;;;7.75;4.25;;;30.00;97.10;;;;;;5020608;28;20251;-60
2023/06/25 05:54:23;;;;;;;6.60;4.72;;;30.30;95.90;;;;;;5022050;28;20200;-59
2023/06/25 05:56:50;;;;;;;5.80;4.32;;;31.30;95.40;;;;;;5018866;28;20540;-59
2023/06/25 05:59:17;;;;;;;6.75;4.75;;;31.90;93.80;;;;;;5005826;28;20204;-59
2023/06/25 06:06:24;;;;;;;7.93;4.35;;;32.10;93.50;;;;;;5017534;22;20248;-86
2023/06/25 06:08:51;;;;;;;5.32;4.32;;;32.70;91.50;;;;;;4975788;28;20221;-87
2023/06/25 06:11:19;;;;;;;4.65;4.13;;;33.00;90.50;;;;;;4974760;28;20198;-86
2023/06/25 06:13:46;;;;;;;5.72;4.15;;;33.20;90.20;;;;;;4979124;28;20225;-87
2023/06/25 06:16:13;;;;;;;6.57;4.25;;;33.80;85.30;;;;;;4976660;28;20570;-88
2023/06/25 06:18:41;;;;;;;5.50;4.07;;;32.40;97.70;;;;;;4964399;28;20206;-87
2023/06/25 06:21:08;;;;;;;4.20;3.80;;;31.60;84.10;;;;;;4959299;28;20288;-86
2023/06/25 06:23:35;;;;;;;6.13;4.10;;;30.40;80.50;;;;;;4978272;28;20272;-87
2023/06/25 06:26:02;;;;;;;7.20;4.13;;;29.50;82.70;;;;;;4960411;28;20712;-86
2023/06/25 06:28:29;;;;;;;4.82;4.38;;;29.20;82.60;;;;;;4959823;28;20692;-86
2023/06/25 06:30:56;;;;;;;7.70;4.32;;;28.90;85.20;;;;;;4979414;28;20947;-86
2023/06/25 06:33:23;;;;;;;6.47;4.20;;;31.00;87.90;;;;;;4991439;28;20215;-87
2023/06/25 06:35:50;;;;;;;4.68;4.00;;;31.20;82.70;;;;;;4988010;28;20298;-86
2023/06/25 06:38:17;;;;;;;7.68;3.95;;;31.30;87.40;;;;;;5003610;28;20213;-87
2023/06/25 06:40:44;;;;;;;5.00;4.45;;;32.10;83.30;;;;;;4988310;28;20584;-86
2023/06/25 06:43:11;;;;;;;6.53;3.95;;;31.80;79.50;;;;;;4982586;28;20283;-86
2023/06/25 06:45:38;;;;;;;5.75;4.28;;;32.90;83.20;;;;;;4974510;28;20202;-88
2023/06/25 06:48:05;;;;;;;4.80;4.30;;;31.60;80.60;;;;;;4983377;28;20673;-87
2023/06/25 06:50:32;;;;;;;5.07;4.32;;;32.50;78.80;;;;;;4968697;28;20209;-87
2023/06/25 06:52:59;;;;;;;5.68;4.93;;;31.80;74.30;;;;;;4971856;28;20297;-86
2023/06/25 06:55:26;;;;;;;4.88;3.85;;;31.60;78.00;;;;;;4992419;28;20308;-86
2023/06/25 06:57:53;;;;;;;8.85;4.72;;;34.10;79.80;;;;;;4974587;28;20206;-86
2023/06/25 07:00:20;;;;;;;6.90;4.97;;;33.70;77.80;;;;;;4980804;28;20207;-85
2023/06/25 07:02:47;;;;;;;6.38;4.88;;;31.90;74.80;;;;;;4973964;28;20205;-84
2023/06/25 07:05:15;;;;;;;5.25;3.55;;;35.50;77.60;;;;;;4987788;28;20258;-84
2023/06/25 07:07:42;;;;;;;4.78;3.55;;;34.90;68.50;;;;;;4971568;28;20237;-85
2023/06/25 07:10:09;;;;;;;7.15;4.70;;;35.10;74.10;;;;;;4984749;28;20284;-85
2023/06/25 07:12:37;;;;;;;4.72;4.18;;;33.30;65.80;;;;;;4971532;28;20221;-85
2023/06/25 07:15:04;;;;;;;4.72;3.90;;;33.60;72.20;;;;;;4971133;28;20236;-85
2023/06/25 07:17:31;;;;;;;5.15;3.83;;;34.60;74.00;;;;;;4987168;28;20220;-82
2023/06/25 07:19:59;;;;;;;8.02;4.50;;;37.00;68.50;;;;;;4967169;28;20868;-82
2023/06/25 07:22:27;;;;;;;7.13;4.60;;;32.70;63.80;;;;;;4979856;28;20186;-81
2023/06/25 07:24:54;;;;;;;4.47;3.90;;;32.30;66.20;;;;;;4982688;28;20209;-82
2023/06/25 07:27:22;;;;;;;5.93;4.22;;;33.90;65.30;;;;;;4965287;28;20213;-82
2023/06/25 07:29:51;;;;;;;6.25;3.75;;;34.70;67.20;;;;;;4982054;28;20209;-81
2023/06/25 07:32:18;;;;;;;6.20;3.67;;;36.90;69.10;;;;;;4964636;28;20201;-81
2023/06/25 07:34:46;;;;;;;4.85;3.80;;;39.90;67.70;;;;;;4983702;28;20260;-80
2023/06/25 07:37:13;;;;;;;4.90;3.63;;;37.60;56.40;;;;;;4980437;28;20205;-82
2023/06/25 07:39:40;;;;;;;6.82;4.50;;;35.20;60.80;;;;;;4980108;28;20591;-83
2023/06/25 07:42:07;;;;;;;5.15;3.63;;;35.80;59.50;;;;;;4981749;28;20276;-87
2023/06/25 07:44:35;;;;;;;4.97;3.97;;;34.60;57.70;;;;;;4971241;28;20198;-93
2023/06/25 07:47:22;;;;;;;6.53;3.60;;;33.40;57.50;;;;;;4972370;28;20273;-87
2023/06/25 07:49:49;;;;;;;5.65;4.35;;;34.90;57.10;;;;;;4990193;28;20266;-90
2023/06/25 07:52:16;;;;;;;5.72;4.00;;;33.50;58.30;;;;;;4986951;28;20213;-87
2023/06/25 07:54:43;;;;;;;6.20;4.47;;;35.80;62.80;;;;;;4985843;28;20225;-88
2023/06/25 07:57:10;;;;;;;4.72;4.15;;;35.60;58.50;;;;;;4972634;28;20273;-88
2023/06/25 07:59:37;;;;;;;5.35;3.55;;;35.70;57.30;;;;;;4987950;28;20182;-89
2023/06/25 08:02:18;;;;;;;6.18;3.60;;;39.30;59.50;;;;;;4989661;28;20185;-89
2023/06/25 08:04:45;;;;;;;5.65;3.60;;;40.30;56.70;;;;;;4970420;28;20311;-88
2023/06/25 08:07:12;;;;;;;4.88;3.45;;;40.70;54.20;;;;;;4974687;28;20235;-87
2023/06/25 08:09:40;;;;;;;5.30;3.78;;;39.40;53.10;;;;;;5007517;28;20194;-88
2023/06/25 08:12:07;;;;;;;5.70;4.03;;;36.70;47.60;;;;;;4979758;28;20237;-88
2023/06/25 08:14:34;;;;;;;4.50;3.20;;;37.10;54.40;;;;;;4979467;28;20227;-88
2023/06/25 08:17:01;;;;;;;3.95;3.55;;;39.90;54.80;;;;;;4978296;28;20661;-88
2023/06/25 08:19:30;;;;;;;5.03;3.90;;;38.80;44.10;;;;;;4977580;28;20223;-89
2023/06/25 08:21:57;;;;;;;6.57;3.25;;;36.90;46.60;;;;;;4992653;28;20935;-88
2023/06/25 08:24:24;;;;;;;4.75;3.63;;;40.20;52.80;;;;;;4974331;28;20205;-87
2023/06/25 08:26:51;;;;;;;3.92;3.28;;;40.70;45.30;;;;;;4973585;28;20292;-87
2023/06/25 08:29:18;;;;;;;4.75;3.42;;;37.80;59.80;;;;;;4990508;28;20204;-87
2023/06/25 08:31:45;;;;;;;4.63;3.40;;;35.20;36.50;;;;;;4974729;28;20680;-89
2023/06/25 08:34:12;;;;;;;3.28;2.95;;;34.80;44.30;;;;;;4993230;28;20280;-89
2023/06/25 08:36:39;;;;;;;3.80;3.40;;;36.80;47.10;;;;;;4990630;28;20681;-89
2023/06/25 08:39:06;;;;;;;5.65;3.38;;;40.60;47.80;;;;;;4993319;28;20213;-93
2023/06/25 08:41:34;;;;;;;4.30;3.58;;;39.70;38.20;;;;;;4994140;28;20188;-88
2023/06/25 08:44:02;;;;;;;5.28;3.38;;;37.50;39.00;;;;;;4993903;28;20288;-87
2023/06/25 08:46:32;;;;;;;5.20;3.72;;;35.90;34.50;;;;;;4996204;28;20237;-92
2023/06/25 08:49:02;;;;;;;4.28;3.42;;;34.50;37.80;;;;;;4980307;28;20201;-90
2023/06/25 08:51:29;;;;;;;4.60;3.30;;;35.10;38.30;;;;;;4991676;28;20193;-86
2023/06/25 08:53:57;;;;;;;4.60;3.28;;;35.70;39.80;;;;;;4985372;28;20205;-86
2023/06/25 08:56:30;;;;;;;3.97;3.58;;;35.00;34.90;;;;;;4973920;28;20204;-84
2023/06/25 08:58:57;;;;;;;4.25;3.78;;;36.60;39.30;;;;;;4989542;28;20667;-85
2023/06/25 09:01:24;;;;;;;3.90;3.40;;;35.90;35.60;;;;;;4986868;28;20329;-86
2023/06/25 09:03:52;;;;;;;7.60;3.05;;;37.40;42.10;;;;;;4996246;28;20283;-86
2023/06/25 09:06:21;;;;;;;7.10;3.50;;;38.90;40.10;;;;;;4981117;28;20229;-85
2023/06/25 09:08:49;;;;;;;4.05;3.00;;;37.40;31.50;;;;;;4997223;28;20205;-85
2023/06/25 09:11:16;;;;;;;4.45;3.42;;;36.10;36.40;;;;;;4977258;28;20243;-85
2023/06/25 09:13:46;;;;;;;3.85;3.42;;;37.40;38.40;;;;;;4972033;28;20217;-85
2023/06/25 09:16:13;;;;;;;3.83;3.15;;;40.20;36.20;;;;;;4975554;28;20216;-85
2023/06/25 09:18:40;;;;;;;5.97;3.58;;;41.70;35.90;;;;;;4973079;28;20189;-85
2023/06/25 09:21:09;;;;;;;4.55;3.10;;;43.70;33.80;;;;;;5014662;28;20196;-85
2023/06/25 09:23:37;;;;;;;4.78;3.30;;;42.70;26.20;;;;;;4995365;28;20260;-84
2023/06/25 09:26:07;;;;;;;3.70;3.20;;;41.60;30.20;;;;;;4990272;28;20280;-82
2023/06/25 09:28:59;;;;;;;4.28;3.30;;;39.70;24.80;;;;;;4991508;28;20208;-83
2023/06/25 09:31:26;;;;;;;4.13;3.30;;;40.80;28.50;;;;;;4973090;28;20247;-83
2023/06/25 09:33:54;;;;;;;4.15;3.10;;;40.40;25.00;;;;;;4991202;28;20298;-83
2023/06/25 09:36:30;;;;;;;4.50;3.42;;;38.10;20.70;;;;;;4989085;28;20193;-83
2023/06/25 09:39:05;;;;;;;4.07;3.10;;;37.60;24.40;;;;;;4988536;28;20739;-89
2023/06/25 09:41:37;;;;;;;3.95;3.33;;;40.70;27.40;;;;;;4971890;28;20193;-85
2023/06/25 09:44:06;;;;;;;6.38;3.80;;;43.10;25.70;;;;;;4978254;28;20264;-85
2023/06/25 09:46:35;;;;;;;3.50;3.20;;;43.30;23.60;;;;;;5001509;28;20205;-85
2023/06/25 09:49:03;;;;;;;4.47;2.95;;;39.20;20.70;;;;;;4991009;28;20194;-85
2023/06/25 09:51:47;;;;;;;3.35;2.75;;;39.20;23.10;;;;;;4975167;28;20196;-85
2023/06/25 09:54:16;;;;;;;4.05;3.53;;;38.90;22.50;;;;;;4975210;28;20232;-84
2023/06/25 09:56:44;;;;;;;3.78;3.20;;;39.00;16.50;;;;;;4991577;28;20226;-83
2023/06/25 09:59:13;;;;;;;4.35;3.47;;;40.10;21.70;;;;;;4991942;28;20833;-83
2023/06/25 10:01:40;;;;;;;3.58;2.88;;;40.10;19.10;;;;;;4987897;28;20201;-82
2023/06/25 10:04:08;;;;;;;3.45;3.15;;;42.50;21.10;;;;;;4994767;28;20201;-83
2023/06/25 10:06:36;;;;;;;9.13;3.03;;;43.40;19.10;;;;;;4974331;28;20229;-83
2023/06/25 10:09:04;;;;;;;3.90;3.15;;;44.50;18.10;;;;;;4974987;28;20201;-83
2023/06/25 10:11:32;;;;;;;4.63;3.35;;;44.60;16.80;;;;;;4967377;28;20201;-83
2023/06/25 10:13:59;;;;;;;3.83;3.40;;;44.10;16.10;;;;;;4977436;28;20347;-85
2023/06/25 10:16:32;;;;;;;3.88;3.45;;;40.80;7.80;;;;;;4973488;28;20240;-83
2023/06/25 10:19:06;;;;;;;3.90;3.25;;;38.70;14.30;;;;;;4986663;28;20203;-83
2023/06/25 10:21:34;;;;;;;4.93;3.15;;;38.60;15.50;;;;;;4990940;28;20646;-84
2023/06/25 10:24:03;;;;;;;4.10;3.40;;;35.90;12.20;;;;;;4988797;28;20260;-83
2023/06/25 10:26:35;;;;;;;4.35;3.42;;;36.40;15.20;;;;;;4989955;28;20267;-82
2023/06/25 10:29:07;;;;;;;4.72;3.58;;;38.20;17.50;;;;;;4981034;28;20208;-82
2023/06/25 10:31:57;;;;;;;3.65;3.20;;;40.20;15.30;;;;;;4972655;28;20242;-82
2023/06/25 10:34:25;;;;;;;3.83;3.42;;;38.40;14.00;;;;;;4986989;28;20332;-81
2023/06/25 10:36:52;;;;;;;3.97;3.10;;;37.20;14.80;;;;;;4966543;28;20205;-82
2023/06/25 10:39:19;;;;;;;3.85;3.42;;;38.40;16.50;;;;;;4987275;28;20200;-80
2023/06/25 10:41:47;;;;;;;3.88;3.17;;;37.50;12.10;;;;;;4984609;28;20778;-81
2023/06/25 10:44:14;;;;;;;4.90;3.30;;;38.20;15.90;;;;;;4986997;28;21000;-81
2023/06/25 10:46:41;;;;;;;3.28;2.97;;;37.70;13.80;;;;;;4970502;28;20288;-81
2023/06/25 10:49:10;;;;;;;3.65;3.08;;;38.40;15.40;;;;;;4985384;28;20557;-81
2023/06/25 10:51:38;;;;;;;3.90;3.40;;;36.20;12.10;;;;;;4988254;28;20181;-81
2023/06/25 10:54:07;;;;;;;5.95;3.53;;;35.20;15.60;;;;;;4988203;28;20542;-81
2023/06/25 10:56:34;;;;;;;4.57;3.42;;;34.40;15.90;;;;;;4968241;28;20190;-82
2023/06/25 10:59:01;;;;;;;4.43;3.22;;;34.50;16.80;;;;;;4979866;28;20645;-81
2023/06/25 11:01:34;;;;;;;4.20;3.53;;;35.40;15.60;;;;;;4987975;28;20207;-82
2023/06/25 11:04:02;;;;;;;5.60;3.50;;;35.40;16.40;;;;;;4956632;28;20740;-81
2023/06/25 11:06:37;;;;;;;5.13;3.70;;;36.60;15.60;;;;;;4987225;28;20757;-82
2023/06/25 11:09:04;;;;;;;4.57;3.00;;;35.60;16.10;;;;;;4971330;28;20867;-82
2023/06/25 11:11:31;;;;;;;5.13;3.75;;;33.70;15.60;;;;;;4987545;28;20201;-81
2023/06/25 11:14:00;;;;;;;3.70;3.10;;;35.90;17.10;;;;;;4985833;28;20221;-83
2023/06/25 11:16:27;;;;;;;4.25;3.35;;;38.20;15.30;;;;;;4985246;28;20193;-83
2023/06/25 11:18:54;;;;;;;5.15;3.85;;;39.90;15.60;;;;;;4972101;28;20569;-83
2023/06/25 11:21:22;;;;;;;3.30;3.00;;;37.50;14.30;;;;;;4987553;28;20193;-82
2023/06/25 11:23:49;;;;;;;4.57;3.15;;;38.20;16.40;;;;;;4986209;28;20611;-83
2023/06/25 11:26:18;;;;;;;5.95;3.67;;;39.80;14.90;;;;;;4971749;28;20196;-84
2023/06/25 11:28:48;;;;;;;3.30;3.00;;;40.40;13.10;;;;;;4989213;28;20273;-83
2023/06/25 11:31:15;;;;;;;4.22;3.42;;;41.40;13.70;;;;;;4968935;28;20216;-82
2023/06/25 11:33:52;;;;;;;3.67;3.22;;;37.90;9.10;;;;;;4987189;28;20224;-84
2023/06/25 11:36:23;;;;;;;4.63;2.72;;;36.30;11.70;;;;;;4982781;28;20185;-84
2023/06/25 11:38:50;;;;;;;4.00;3.13;;;35.20;13.00;;;;;;4985482;28;20507;-83
2023/06/25 11:41:24;;;;;;;4.10;3.30;;;34.80;11.90;;;;;;4989066;28;20253;-82
2023/06/25 11:43:51;;;;;;;3.22;2.92;;;34.50;15.90;;;;;;4994166;28;20225;-84
2023/06/25 11:46:20;;;;;;;3.85;3.28;;;35.80;14.60;;;;;;4986466;28;20268;-83
2023/06/25 11:48:48;;;;;;;3.78;3.30;;;35.60;13.40;;;;;;4989688;28;20220;-83
2023/06/25 11:51:15;;;;;;;3.70;2.80;;;33.70;12.80;;;;;;4974047;28;20683;-83
2023/06/25 11:53:42;;;;;;;3.78;3.15;;;33.10;14.00;;;;;;4973605;28;20201;-84
2023/06/25 11:56:09;;;;;;;3.40;3.10;;;33.50;15.90;;;;;;4991661;28;20225;-84
2023/06/25 11:58:36;;;;;;;5.00;3.20;;;34.00;13.90;;;;;;4994750;28;20672;-84
2023/06/25 12:01:04;;;;;;;5.57;3.50;;;33.40;16.10;;;;;;4995085;28;20201;-85
2023/06/25 12:03:34;;;;;;;4.03;3.30;;;35.00;16.70;;;;;;4974224;28;20197;-83
2023/06/25 12:06:01;;;;;;;4.22;3.33;;;35.20;16.10;;;;;;4990067;28;20764;-84
2023/06/25 12:08:28;;;;;;;4.10;3.30;;;35.30;14.00;;;;;;4976245;28;20225;-84
2023/06/25 12:10:55;;;;;;;4.10;3.10;;;34.80;14.70;;;;;;4993175;28;20817;-84
2023/06/25 12:13:22;;;;;;;3.35;3.00;;;36.40;16.00;;;;;;4988228;28;20288;-84
2023/06/25 12:15:49;;;;;;;3.58;2.97;;;37.80;15.20;;;;;;4972476;28;20210;-83
2023/06/25 12:18:16;;;;;;;3.78;3.38;;;38.40;15.20;;;;;;4985671;28;20212;-84
2023/06/25 12:20:43;;;;;;;3.92;3.40;;;37.70;14.80;;;;;;4989180;28;20299;-83
2023/06/25 12:23:10;;;;;;;3.60;3.30;;;38.20;15.60;;;;;;4984713;28;20204;-82
2023/06/25 12:25:39;;;;;;;4.07;3.22;;;38.90;14.70;;;;;;4987263;28;20212;-82
2023/06/25 12:28:06;;;;;;;3.72;3.28;;;38.20;14.30;;;;;;4989407;28;20288;-82
2023/06/25 12:30:33;;;;;;;4.28;3.45;;;37.80;14.40;;;;;;4985497;28;20569;-82
2023/06/25 12:33:01;;;;;;;4.15;3.10;;;37.70;15.80;;;;;;4995183;28;20202;-82
2023/06/25 12:35:28;;;;;;;4.28;3.55;;;37.50;16.00;;;;;;4972987;28;20213;-84
2023/06/25 12:37:55;;;;;;;4.10;3.50;;;37.90;15.20;;;;;;4988866;28;20193;-83
2023/06/25 12:40:22;;;;;;;4.55;3.10;;;36.20;12.90;;;;;;4988687;28;20228;-82
2023/06/25 12:42:49;;;;;;;5.03;3.40;;;36.30;15.50;;;;;;4974615;28;20196;-82
2023/06/25 12:45:17;;;;;;;3.45;3.10;;;35.30;13.00;;;;;;4973316;28;20201;-82
2023/06/25 12:47:44;;;;;;;4.47;2.97;;;35.60;16.10;;;;;;4989265;28;20190;-89
2023/06/25 12:50:12;;;;;;;3.35;3.05;;;36.00;16.60;;;;;;4990350;28;20201;-84
2023/06/25 12:52:39;;;;;;;3.40;3.08;;;36.10;16.20;;;;;;4986886;28;20216;-84
2023/06/25 12:55:08;;;;;;;4.05;3.08;;;34.50;13.60;;;;;;4991355;28;20206;-84